createdAt,value
2023-07-05T00:01:41.148Z,10.70
2023-07-05T00:04:10.634Z,6.47
2023-07-05T00:06:40.042Z,7.15
2023-07-05T00:09:11.249Z,8.98
2023-07-05T00:11:41.467Z,8.43
2023-07-05T00:14:15.380Z,8.85
2023-07-05T00:17:01.358Z,10.45
2023-07-05T00:19:36.658Z,6.38
2023-07-05T00:22:10.730Z,7.95
2023-07-05T00:24:41.600Z,6.75
2023-07-05T00:27:15.321Z,9.77
2023-07-05T00:29:43.440Z,8.07
2023-07-05T00:32:11.416Z,11.52
2023-07-05T00:34:41.554Z,8.93
2023-07-05T00:37:10.956Z,8.70
2023-07-05T00:39:46.431Z,9.88
2023-07-05T00:42:14.635Z,11.30
2023-07-05T00:44:42.897Z,6.75
2023-07-05T00:47:33.484Z,8.93
2023-07-05T00:50:20.109Z,10.18
2023-07-05T00:52:56.855Z,6.38
2023-07-05T00:55:28.465Z,7.13
2023-07-05T00:58:15.057Z,7.68
2023-07-05T01:00:48.703Z,9.13
2023-07-05T01:03:22.889Z,6.80
2023-07-05T01:05:57.633Z,5.93
2023-07-05T01:08:27.048Z,9.40
2023-07-05T01:11:07.470Z,7.68
2023-07-05T01:13:43.771Z,9.70
2023-07-05T01:16:49.181Z,9.30
2023-07-05T01:19:38.762Z,7.25
2023-07-05T01:22:11.285Z,9.35
2023-07-05T01:25:21.888Z,6.88
2023-07-05T01:28:16.176Z,7.88
2023-07-05T01:31:25.424Z,8.18
2023-07-05T01:34:04.164Z,10.10
2023-07-05T01:36:33.045Z,8.32
2023-07-05T01:39:04.084Z,11.05
2023-07-05T01:41:32.354Z,10.60
2023-07-05T01:44:00.588Z,7.97
2023-07-05T01:46:29.998Z,8.43
2023-07-05T01:49:29.551Z,10.55
2023-07-05T01:52:02.599Z,10.77
2023-07-05T01:54:43.820Z,7.53
2023-07-05T01:57:20.136Z,8.90
2023-07-05T02:00:05.133Z,11.18
2023-07-05T02:02:46.621Z,9.73
2023-07-05T02:05:31.486Z,10.85
2023-07-05T02:08:02.519Z,7.72
2023-07-05T02:10:38.791Z,8.05
2023-07-05T02:13:12.328Z,9.75
2023-07-05T02:15:40.744Z,9.55
2023-07-05T02:18:09.103Z,8.05
2023-07-05T02:20:42.992Z,7.50
2023-07-05T02:23:20.892Z,10.40
2023-07-05T02:25:52.986Z,8.50
2023-07-05T02:28:23.803Z,9.55
2023-07-05T02:30:54.631Z,11.10
2023-07-05T02:33:25.769Z,10.93
2023-07-05T02:36:15.294Z,8.18
2023-07-05T02:38:43.759Z,8.80
2023-07-05T02:41:12.176Z,10.70
2023-07-05T02:43:43.194Z,8.90
2023-07-05T02:46:11.271Z,8.25
2023-07-05T02:48:40.650Z,11.05
2023-07-05T02:51:40.043Z,12.07
2023-07-05T02:54:09.171Z,10.10
2023-07-05T02:56:40.021Z,10.33
2023-07-05T02:59:15.092Z,10.23
2023-07-05T03:01:54.000Z,7.80
2023-07-05T03:04:25.380Z,8.85
2023-07-05T03:07:04.217Z,8.27
2023-07-05T03:09:33.780Z,11.50
2023-07-05T03:12:02.020Z,9.10
2023-07-05T03:14:33.116Z,8.88
2023-07-05T03:17:01.286Z,9.90
2023-07-05T03:19:38.318Z,10.52
2023-07-05T03:22:10.556Z,6.57
2023-07-05T03:24:38.616Z,10.23
2023-07-05T03:27:09.581Z,9.85
2023-07-05T03:29:52.883Z,7.38
2023-07-05T03:32:27.304Z,7.60
2023-07-05T03:35:01.140Z,8.13
2023-07-05T03:37:33.663Z,10.18
2023-07-05T03:40:11.673Z,6.82
2023-07-05T03:42:48.636Z,8.10
2023-07-05T03:45:28.597Z,8.68
2023-07-05T03:48:02.217Z,9.35
2023-07-05T03:50:36.096Z,6.97
2023-07-05T03:53:07.722Z,13.25
2023-07-05T03:55:36.724Z,9.27
2023-07-05T03:58:10.845Z,10.23
2023-07-05T04:00:38.872Z,8.23
2023-07-05T04:03:10.069Z,8.02
2023-07-05T04:05:40.143Z,8.20
2023-07-05T04:08:09.565Z,9.82
2023-07-05T04:10:56.215Z,10.23
2023-07-05T04:13:42.320Z,9.65
2023-07-05T04:16:13.752Z,11.20
2023-07-05T04:18:59.811Z,12.07
2023-07-05T04:21:49.702Z,9.10
2023-07-05T04:24:19.057Z,9.13
2023-07-05T04:26:55.832Z,9.07
2023-07-05T04:29:24.259Z,9.07
2023-07-05T04:31:52.593Z,8.18
2023-07-05T04:34:23.639Z,7.05
2023-07-05T04:36:51.642Z,8.02
2023-07-05T04:39:39.450Z,10.68
2023-07-05T04:42:10.535Z,9.48
2023-07-05T04:44:38.581Z,9.10
2023-07-05T04:47:09.150Z,9.70
2023-07-05T04:49:40.439Z,9.77
2023-07-05T04:52:11.262Z,8.75
2023-07-05T04:54:40.752Z,7.57
2023-07-05T04:57:27.198Z,9.95
2023-07-05T05:00:07.033Z,7.97
2023-07-05T05:02:35.165Z,9.40
2023-07-05T05:05:06.514Z,8.20
2023-07-05T05:07:37.663Z,6.63
2023-07-05T05:10:08.268Z,11.83
2023-07-05T05:12:39.052Z,7.57
2023-07-05T05:15:10.466Z,10.82
2023-07-05T05:17:41.634Z,10.20
2023-07-05T05:20:18.285Z,9.23
2023-07-05T05:22:46.432Z,8.02
2023-07-05T05:25:15.856Z,10.90
2023-07-05T05:27:51.517Z,9.63
2023-07-05T05:30:25.523Z,11.32
2023-07-05T05:35:49.952Z,10.48
2023-07-05T05:38:21.731Z,10.40
2023-07-05T05:40:52.606Z,8.90
2023-07-05T05:43:21.569Z,11.93
2023-07-05T05:45:49.689Z,10.48
2023-07-05T05:48:23.636Z,14.60
2023-07-05T05:50:51.662Z,10.88
2023-07-05T05:53:22.005Z,11.82
2023-07-05T05:55:56.516Z,11.77
2023-07-05T05:58:33.510Z,12.40
2023-07-05T06:01:21.139Z,11.27
2023-07-05T06:03:55.531Z,12.98
2023-07-05T06:06:35.543Z,12.23
2023-07-05T06:09:11.201Z,12.63
2023-07-05T06:11:44.176Z,15.38
2023-07-05T06:14:21.097Z,11.20
2023-07-05T06:16:49.171Z,11.73
2023-07-05T06:19:19.993Z,11.80
2023-07-05T06:21:50.480Z,12.88
2023-07-05T06:24:18.490Z,10.68
2023-07-05T06:26:50.911Z,11.23
2023-07-05T06:29:19.104Z,13.65
2023-07-05T06:31:52.229Z,16.75
2023-07-05T06:34:33.772Z,13.15
2023-07-05T06:37:02.116Z,15.48
2023-07-05T06:39:33.464Z,15.25
2023-07-05T06:42:03.082Z,14.35
2023-07-05T06:44:36.844Z,21.08
2023-07-05T06:47:11.001Z,19.10
2023-07-05T06:50:00.771Z,17.90
2023-07-05T06:52:28.820Z,15.10
2023-07-05T06:54:59.041Z,16.08
2023-07-05T06:57:28.490Z,18.10
2023-07-05T07:00:10.730Z,16.30
2023-07-05T07:02:41.929Z,17.42
2023-07-05T07:05:10.254Z,21.25
2023-07-05T07:07:41.465Z,18.80
2023-07-05T07:10:10.351Z,21.73
2023-07-05T07:12:39.790Z,18.80
2023-07-05T07:15:11.238Z,20.35
2023-07-05T07:17:53.536Z,22.10
2023-07-05T07:20:26.733Z,19.58
2023-07-05T07:22:54.845Z,20.98
2023-07-05T07:25:30.115Z,20.02
2023-07-05T07:28:19.895Z,20.85
2023-07-05T07:30:54.128Z,23.60
2023-07-05T07:33:24.742Z,19.77
2023-07-05T07:35:52.820Z,22.38
2023-07-05T07:38:38.607Z,21.55
2023-07-05T07:41:06.775Z,19.40
2023-07-05T07:43:36.190Z,21.58
2023-07-05T07:46:09.640Z,21.88
2023-07-05T07:48:41.438Z,21.35
2023-07-05T07:51:12.994Z,19.90
2023-07-05T07:53:52.070Z,20.92
2023-07-05T07:56:24.410Z,18.95
2023-07-05T07:59:08.657Z,19.08
2023-07-05T08:01:41.322Z,17.65
2023-07-05T08:04:11.636Z,16.02
2023-07-05T08:06:44.855Z,17.92
2023-07-05T08:09:14.497Z,17.83
2023-07-05T08:11:42.591Z,15.13
2023-07-05T08:14:30.031Z,15.00
2023-07-05T08:17:03.239Z,16.25
2023-07-05T08:19:31.810Z,16.38
2023-07-05T08:22:03.870Z,15.30
2023-07-05T08:24:34.720Z,15.10
2023-07-05T08:27:12.569Z,15.95
2023-07-05T08:29:42.402Z,14.80
2023-07-05T08:32:11.181Z,15.88
2023-07-05T08:34:49.382Z,15.55
2023-07-05T08:37:23.341Z,15.75
2023-07-05T08:40:00.282Z,15.30
2023-07-05T08:42:57.144Z,12.77
2023-07-05T08:45:33.826Z,11.02
2023-07-05T08:48:07.899Z,12.68
2023-07-05T08:50:56.639Z,13.00
2023-07-05T08:53:48.774Z,12.57
2023-07-05T08:56:33.548Z,8.13
2023-07-05T08:59:08.886Z,11.20
2023-07-05T09:01:41.248Z,8.75
2023-07-05T09:04:13.680Z,7.43
2023-07-05T09:06:51.372Z,8.15
2023-07-05T09:09:36.005Z,7.38
2023-07-05T09:12:17.415Z,7.28
2023-07-05T09:15:12.758Z,8.70
2023-07-05T09:17:51.544Z,7.50
2023-07-05T09:20:39.790Z,9.55
2023-07-05T09:23:17.671Z,8.77
2023-07-05T09:25:55.762Z,8.55
2023-07-05T09:28:28.106Z,9.80
2023-07-05T09:30:56.252Z,8.63
2023-07-05T09:33:32.409Z,8.35
2023-07-05T09:36:06.124Z,9.73
2023-07-05T09:38:39.626Z,5.63
2023-07-05T09:41:13.808Z,5.78
2023-07-05T09:43:42.098Z,6.85
2023-07-05T09:46:16.899Z,5.38
2023-07-05T09:48:48.195Z,6.25
2023-07-05T09:51:18.567Z,7.45
2023-07-05T09:53:50.539Z,6.20
2023-07-05T09:56:28.729Z,3.95
2023-07-05T09:59:10.753Z,3.95
2023-07-05T10:01:42.985Z,3.63
2023-07-05T10:04:13.503Z,3.55
2023-07-05T10:06:49.114Z,3.05
2023-07-05T10:09:20.699Z,2.42
2023-07-05T10:11:50.593Z,4.13
2023-07-05T10:14:21.633Z,3.33
2023-07-05T10:16:55.183Z,2.58
2023-07-05T10:19:32.663Z,4.20
2023-07-05T10:22:08.539Z,3.67
2023-07-05T10:24:43.706Z,2.83
2023-07-05T10:27:23.720Z,2.03
2023-07-05T10:29:58.860Z,1.80
2023-07-05T10:32:26.931Z,2.42
2023-07-05T10:34:56.775Z,3.92
2023-07-05T10:37:35.821Z,4.00
2023-07-05T10:40:06.641Z,2.28
2023-07-05T10:42:37.170Z,2.17
2023-07-05T10:45:06.162Z,5.18
2023-07-05T10:47:35.078Z,3.28
2023-07-05T10:50:08.120Z,2.85
2023-07-05T10:52:38.756Z,2.05
2023-07-05T10:55:20.206Z,2.35
2023-07-05T10:58:02.382Z,1.33
2023-07-05T11:00:39.057Z,1.30
2023-07-05T11:03:12.779Z,2.10
2023-07-05T11:05:48.368Z,2.20
2023-07-05T11:08:20.875Z,2.22
2023-07-05T11:10:50.850Z,2.70
2023-07-05T11:13:23.467Z,2.20
2023-07-05T11:15:57.466Z,3.20
2023-07-05T11:18:28.851Z,4.97
2023-07-05T11:21:01.021Z,3.05
2023-07-05T11:23:55.593Z,3.47
2023-07-05T11:26:48.211Z,2.45
2023-07-05T11:29:50.519Z,3.95
2023-07-05T11:32:18.779Z,3.30
2023-07-05T11:35:09.194Z,4.32
2023-07-05T11:37:47.931Z,1.50
2023-07-05T11:41:02.871Z,4.18
2023-07-05T11:43:42.504Z,2.25
2023-07-05T11:46:39.594Z,5.43
2023-07-05T11:49:37.681Z,2.80
2023-07-05T11:52:12.498Z,3.08
2023-07-05T11:54:49.470Z,3.92
2023-07-05T11:57:20.616Z,2.05
2023-07-05T12:00:03.448Z,2.55
2023-07-05T12:03:02.658Z,4.18
2023-07-05T12:05:37.653Z,3.25
2023-07-05T12:08:17.552Z,1.83
2023-07-05T12:10:55.656Z,2.13
2023-07-05T12:13:28.987Z,1.38
2023-07-05T12:16:00.093Z,3.05
2023-07-05T12:18:29.874Z,1.98
2023-07-05T12:21:05.413Z,3.63
2023-07-05T12:23:38.885Z,2.30
2023-07-05T12:26:26.037Z,1.77
2023-07-05T12:28:54.114Z,2.22
2023-07-05T12:31:24.056Z,1.23
2023-07-05T12:33:56.468Z,2.00
2023-07-05T12:36:25.607Z,4.30
2023-07-05T12:39:15.898Z,3.03
2023-07-05T12:41:45.640Z,2.33
2023-07-05T12:44:26.699Z,4.32
2023-07-05T12:47:12.956Z,4.22
2023-07-05T12:49:41.144Z,1.85
2023-07-05T12:52:20.467Z,2.90
2023-07-05T12:54:49.136Z,2.92
2023-07-05T12:57:33.334Z,2.40
2023-07-05T13:00:14.549Z,5.68
2023-07-05T13:02:54.772Z,4.00
2023-07-05T13:05:41.983Z,1.70
2023-07-05T13:08:12.962Z,3.28
2023-07-05T13:10:45.368Z,5.13
2023-07-05T13:13:35.304Z,6.78
2023-07-05T13:16:22.157Z,3.13
2023-07-05T13:18:59.189Z,6.30
2023-07-05T13:21:37.641Z,6.75
2023-07-05T13:24:09.638Z,2.60
2023-07-05T13:26:39.021Z,2.67
2023-07-05T13:29:25.233Z,2.08
2023-07-05T13:31:55.695Z,4.00
2023-07-05T13:34:25.086Z,4.10
2023-07-05T13:36:57.132Z,3.58
2023-07-05T13:39:25.165Z,2.17
2023-07-05T13:42:04.549Z,2.22
2023-07-05T13:44:33.999Z,4.85
2023-07-05T13:47:02.347Z,3.20
2023-07-05T13:49:33.422Z,2.55
2023-07-05T13:52:05.029Z,2.63
2023-07-05T13:54:34.019Z,2.42
2023-07-05T13:57:02.040Z,5.07
2023-07-05T13:59:34.310Z,4.47
2023-07-05T14:02:02.751Z,6.93
2023-07-05T14:04:30.894Z,2.60
2023-07-05T14:06:58.979Z,2.55
2023-07-05T14:09:27.209Z,1.80
2023-07-05T14:11:55.634Z,4.43
2023-07-05T14:14:23.596Z,3.35
2023-07-05T14:16:53.164Z,3.03
2023-07-05T14:19:23.693Z,3.40
2023-07-05T14:21:52.401Z,3.05
2023-07-05T14:24:20.511Z,2.85
2023-07-05T14:26:48.543Z,3.13
2023-07-05T14:29:16.540Z,1.80
2023-07-05T14:31:52.626Z,3.33
2023-07-05T14:34:30.967Z,3.05
2023-07-05T14:37:02.425Z,5.57
2023-07-05T14:39:36.276Z,3.88
2023-07-05T14:42:05.382Z,3.97
2023-07-05T14:44:39.369Z,2.30
2023-07-05T14:49:39.613Z,1.75
2023-07-05T14:52:13.699Z,3.40
2023-07-05T14:54:44.486Z,3.05
2023-07-05T14:57:18.498Z,2.35
2023-07-05T14:59:53.732Z,4.13
2023-07-05T15:02:27.862Z,3.05
2023-07-05T15:05:03.233Z,5.50
2023-07-05T15:07:31.390Z,5.00
2023-07-05T15:10:05.904Z,2.97
2023-07-05T15:12:43.653Z,1.67
2023-07-05T15:15:19.471Z,4.30
2023-07-05T15:17:57.003Z,2.60
2023-07-05T15:20:27.249Z,4.90
2023-07-05T15:22:58.377Z,2.67
2023-07-05T15:25:26.518Z,3.03
2023-07-05T15:27:54.659Z,4.43
2023-07-05T15:30:24.036Z,2.22
2023-07-05T15:32:52.366Z,8.27
2023-07-05T15:35:22.083Z,3.88
2023-07-05T15:37:51.582Z,2.47
2023-07-05T15:40:20.059Z,5.05
2023-07-05T15:42:49.763Z,2.78
2023-07-05T15:45:19.014Z,2.60
2023-07-05T15:47:48.180Z,3.03
2023-07-05T15:50:18.363Z,3.80
2023-07-05T15:52:47.157Z,8.77
2023-07-05T15:55:16.712Z,5.82
2023-07-05T15:57:44.923Z,5.03
2023-07-05T16:00:24.238Z,10.48
2023-07-05T16:03:01.742Z,6.90
2023-07-05T16:05:32.130Z,3.97
2023-07-05T16:08:02.125Z,4.30
2023-07-05T16:10:33.139Z,7.35
2023-07-05T16:13:02.390Z,5.10
2023-07-05T16:15:32.373Z,5.10
2023-07-05T16:18:00.687Z,6.28
2023-07-05T16:20:29.439Z,7.00
2023-07-05T16:22:57.406Z,8.90
2023-07-05T16:25:25.897Z,7.53
2023-07-05T16:27:55.277Z,3.03
2023-07-05T16:30:26.465Z,6.93
2023-07-05T16:32:54.643Z,3.42
2023-07-05T16:35:22.853Z,4.63
2023-07-05T16:37:52.743Z,4.50
2023-07-05T16:40:21.110Z,3.40
2023-07-05T16:42:53.386Z,5.32
2023-07-05T16:45:24.937Z,4.10
2023-07-05T16:47:55.873Z,5.05
2023-07-05T16:50:24.711Z,3.20
2023-07-05T16:52:53.663Z,3.60
2023-07-05T16:55:21.731Z,3.78
2023-07-05T16:57:49.760Z,2.97
2023-07-05T17:00:18.558Z,2.83
2023-07-05T17:02:48.023Z,8.88
2023-07-05T17:05:16.275Z,2.38
2023-07-05T17:07:44.312Z,3.45
2023-07-05T17:10:13.321Z,6.65
2023-07-05T17:12:44.499Z,2.72
2023-07-05T17:15:12.603Z,2.35
2023-07-05T17:17:44.139Z,3.38
2023-07-05T17:20:14.459Z,2.65
2023-07-05T17:22:42.475Z,2.40
2023-07-05T17:25:11.094Z,11.15
2023-07-05T17:27:55.512Z,5.97
2023-07-05T17:30:23.560Z,5.10
2023-07-05T17:32:55.577Z,2.13
2023-07-05T17:35:25.015Z,3.90
2023-07-05T17:37:53.103Z,4.95
2023-07-05T17:40:21.334Z,2.03
2023-07-05T17:42:49.327Z,3.58
2023-07-05T17:45:18.332Z,6.20
2023-07-05T17:47:46.408Z,3.78
2023-07-05T17:50:14.545Z,2.25
2023-07-05T17:52:46.210Z,3.20
2023-07-05T17:55:14.740Z,3.80
2023-07-05T17:57:42.737Z,2.78
2023-07-05T18:00:12.662Z,3.50
2023-07-05T18:02:42.934Z,4.95
2023-07-05T18:05:13.595Z,2.97
2023-07-05T18:07:43.771Z,3.25
2023-07-05T18:10:12.683Z,2.38
2023-07-05T18:12:41.248Z,2.67
2023-07-05T18:15:10.720Z,2.42
2023-07-05T18:17:41.006Z,3.08
2023-07-05T18:20:10.327Z,3.17
2023-07-05T18:22:38.805Z,2.72
2023-07-05T18:25:09.899Z,2.33
2023-07-05T18:27:37.869Z,2.60
2023-07-05T18:30:07.489Z,2.08
2023-07-05T18:32:35.556Z,3.30
2023-07-05T18:35:04.201Z,3.40
2023-07-05T18:37:34.315Z,2.45
2023-07-05T18:40:02.357Z,5.50
2023-07-05T18:42:31.818Z,4.72
2023-07-05T18:44:59.830Z,4.60
2023-07-05T18:47:28.567Z,4.40
2023-07-05T18:49:59.507Z,4.25
2023-07-05T18:52:29.987Z,3.65
2023-07-05T18:54:58.422Z,6.30
2023-07-05T18:57:26.533Z,7.63
2023-07-05T18:59:56.163Z,4.28
2023-07-05T19:02:27.055Z,3.90
2023-07-05T19:04:58.185Z,3.38
2023-07-05T19:07:29.126Z,3.08
2023-07-05T19:09:58.988Z,3.55
2023-07-05T19:12:27.017Z,2.80
2023-07-05T19:14:56.414Z,10.75
2023-07-05T19:17:24.484Z,11.13
2023-07-05T19:19:58.403Z,3.65
2023-07-05T19:22:26.893Z,4.88
2023-07-05T19:24:54.898Z,2.35
2023-07-05T19:27:23.618Z,4.07
2023-07-05T19:29:51.625Z,2.72
2023-07-05T19:32:21.082Z,4.78
2023-07-05T19:34:49.143Z,4.93
2023-07-05T19:37:17.144Z,3.78
2023-07-05T19:39:50.626Z,4.13
2023-07-05T19:42:26.620Z,5.82
2023-07-05T19:44:54.688Z,3.42
2023-07-05T19:47:29.141Z,4.53
2023-07-05T19:49:57.696Z,4.25
2023-07-05T19:52:30.376Z,4.88
2023-07-05T19:54:58.498Z,4.88
2023-07-05T19:57:46.525Z,3.05
2023-07-05T20:00:20.943Z,4.25
2023-07-05T20:02:55.590Z,5.38
2023-07-05T20:05:23.678Z,5.38
2023-07-05T20:07:51.707Z,2.50
2023-07-05T20:10:22.565Z,3.50
2023-07-05T20:12:50.576Z,3.22
2023-07-05T20:15:21.709Z,3.78
2023-07-05T20:17:51.198Z,2.75
2023-07-05T20:20:19.653Z,3.13
2023-07-05T20:22:47.712Z,3.88
2023-07-05T20:25:23.656Z,2.92
2023-07-05T20:27:59.136Z,2.72
2023-07-05T20:30:30.067Z,3.05
2023-07-05T20:32:59.597Z,3.67
2023-07-05T20:35:33.560Z,4.28
2023-07-05T20:38:05.454Z,4.15
2023-07-05T20:40:36.276Z,4.30
2023-07-05T20:43:04.288Z,3.15
2023-07-05T20:45:32.312Z,4.57
2023-07-05T20:48:01.706Z,5.53
2023-07-05T20:50:38.790Z,3.40
2023-07-05T20:53:06.798Z,3.05
2023-07-05T20:55:34.849Z,3.10
2023-07-05T20:58:02.951Z,4.65
2023-07-05T21:00:30.966Z,5.20
2023-07-05T21:02:59.039Z,3.83
2023-07-05T21:05:28.451Z,5.05
2023-07-05T21:07:56.434Z,4.20
2023-07-05T21:10:24.770Z,4.28
2023-07-05T21:12:52.761Z,4.95
2023-07-05T21:15:27.029Z,3.08
2023-07-05T21:18:01.161Z,3.35
2023-07-05T21:20:34.946Z,3.50
2023-07-05T21:23:07.760Z,4.80
2023-07-05T21:25:35.820Z,6.07
2023-07-05T21:28:09.762Z,2.55
2023-07-05T21:30:37.941Z,2.13
2023-07-05T21:33:06.123Z,3.67
2023-07-05T21:35:39.496Z,3.65
2023-07-05T21:38:10.599Z,2.53
2023-07-05T21:40:41.751Z,4.82
2023-07-05T21:43:15.624Z,2.65
2023-07-05T21:45:44.611Z,3.70
2023-07-05T21:48:15.286Z,4.63
2023-07-05T21:50:48.681Z,3.10
2023-07-05T21:53:18.829Z,4.00
2023-07-05T21:55:57.769Z,2.30
2023-07-05T21:58:30.354Z,3.58
2023-07-05T22:01:00.358Z,2.97
2023-07-05T22:03:28.739Z,3.65
2023-07-05T22:05:59.818Z,4.18
2023-07-05T22:08:31.318Z,3.45
2023-07-05T22:10:59.717Z,3.33
2023-07-05T22:13:32.773Z,4.13
2023-07-05T22:16:03.849Z,3.45
2023-07-05T22:18:34.952Z,3.25
2023-07-05T22:21:05.085Z,4.03
2023-07-05T22:23:33.166Z,3.80
2023-07-05T22:26:01.207Z,4.70
2023-07-05T22:28:29.244Z,5.47
2023-07-05T22:30:59.519Z,3.38
2023-07-05T22:33:33.842Z,4.13
2023-07-05T22:36:04.662Z,6.43
2023-07-05T22:38:35.730Z,4.85
2023-07-05T22:41:04.320Z,4.60
2023-07-05T22:43:33.192Z,2.80
2023-07-05T22:46:04.262Z,3.95
2023-07-05T22:48:34.185Z,4.57
2023-07-05T22:51:09.577Z,3.75
2023-07-05T22:53:42.061Z,4.38
2023-07-05T22:56:11.393Z,4.07
2023-07-05T22:58:43.844Z,6.80
2023-07-05T23:01:12.820Z,4.70
2023-07-05T23:03:41.020Z,4.85
2023-07-05T23:06:11.142Z,2.72
2023-07-05T23:08:39.192Z,3.55
2023-07-05T23:11:13.945Z,4.50
2023-07-05T23:13:45.111Z,3.40
2023-07-05T23:16:18.232Z,6.63
2023-07-05T23:18:52.005Z,4.13
2023-07-05T23:21:32.099Z,3.53
2023-07-05T23:24:01.878Z,2.58
2023-07-05T23:26:36.229Z,5.47
2023-07-05T23:29:06.167Z,3.03
2023-07-05T23:31:36.381Z,3.53
2023-07-05T23:34:07.385Z,5.22
2023-07-05T23:36:35.440Z,3.03
2023-07-05T23:39:07.023Z,3.58
2023-07-05T23:41:36.651Z,4.20
2023-07-05T23:44:07.297Z,3.58
2023-07-05T23:46:41.673Z,5.70
2023-07-05T23:49:28.450Z,3.97
2023-07-05T23:51:59.257Z,4.20
2023-07-05T23:54:27.628Z,3.72
2023-07-05T23:57:03.339Z,3.65
2023-07-05T23:59:31.399Z,3.60
